sensor_id;sensor_type;location;lat;lon;timestamp;pressure;altitude;pressure_sealevel;temperature;humidity
4705;BME280;2366;51.332;6.610;2023-04-03T00:00:25;102793.88;;;4.47;69.75
4705;BME280;2366;51.332;6.610;2023-04-03T00:02:50;102793.84;;;4.44;69.39
4705;BME280;2366;51.332;6.610;2023-04-03T00:05:16;102792.16;;;4.40;69.56
4705;BME280;2366;51.332;6.610;2023-04-03T00:07:41;102798.28;;;4.36;70.05
4705;BME280;2366;51.332;6.610;2023-04-03T00:10:07;102802.66;;;4.40;69.65
4705;BME280;2366;51.332;6.610;2023-04-03T00:12:33;102795.66;;;4.36;69.50
4705;BME280;2366;51.332;6.610;2023-04-03T00:14:58;102801.78;;;4.30;69.83
4705;BME280;2366;51.332;6.610;2023-04-03T00:17:24;102799.16;;;4.26;69.82
4705;BME280;2366;51.332;6.610;2023-04-03T00:19:49;102801.81;;;4.21;69.88
4705;BME280;2366;51.332;6.610;2023-04-03T00:22:14;102793.94;;;4.15;69.80
4705;BME280;2366;51.332;6.610;2023-04-03T00:24:40;102793.94;;;4.14;69.94
4705;BME280;2366;51.332;6.610;2023-04-03T00:27:06;102793.06;;;4.11;70.00
4705;BME280;2366;51.332;6.610;2023-04-03T00:29:31;102794.81;;;4.11;69.73
4705;BME280;2366;51.332;6.610;2023-04-03T00:31:57;102799.19;;;4.07;70.09
4705;BME280;2366;51.332;6.610;2023-04-03T00:34:22;102789.56;;;4.03;70.24
4705;BME280;2366;51.332;6.610;2023-04-03T00:36:47;102795.69;;;4.02;69.69
4705;BME280;2366;51.332;6.610;2023-04-03T00:39:13;102787.84;;;3.99;69.91
4705;BME280;2366;51.332;6.610;2023-04-03T00:41:38;102791.31;;;3.98;69.73
4705;BME280;2366;51.332;6.610;2023-04-03T00:47:02;102793.94;;;3.86;70.19
4705;BME280;2366;51.332;6.610;2023-04-03T00:49:28;102792.22;;;3.85;70.52
4705;BME280;2366;51.332;6.610;2023-04-03T00:51:55;102807.06;;;3.86;70.16
4705;BME280;2366;51.332;6.610;2023-04-03T00:54:21;102800.09;;;3.82;70.28
4705;BME280;2366;51.332;6.610;2023-04-03T00:56:46;102805.34;;;3.76;70.32
4705;BME280;2366;51.332;6.610;2023-04-03T00:59:15;102801.81;;;3.70;70.24
4705;BME280;2366;51.332;6.610;2023-04-03T01:01:47;102805.31;;;3.68;70.30
4705;BME280;2366;51.332;6.610;2023-04-03T01:04:35;102804.47;;;3.67;70.06
4705;BME280;2366;51.332;6.610;2023-04-03T01:07:05;102802.69;;;3.66;70.80
4705;BME280;2366;51.332;6.610;2023-04-03T01:09:32;102802.69;;;3.66;70.21
4705;BME280;2366;51.332;6.610;2023-04-03T01:12:24;102811.47;;;3.65;70.92
4705;BME280;2366;51.332;6.610;2023-04-03T01:14:54;102806.22;;;3.65;70.68
4705;BME280;2366;51.332;6.610;2023-04-03T01:17:40;102814.97;;;3.64;70.85
4705;BME280;2366;51.332;6.610;2023-04-03T01:25:21;102806.19;;;3.59;71.00
4705;BME280;2366;51.332;6.610;2023-04-03T01:27:46;102814.97;;;3.58;71.17
4705;BME280;2366;51.332;6.610;2023-04-03T01:30:14;102813.22;;;3.56;70.79
4705;BME280;2366;51.332;6.610;2023-04-03T01:32:41;102817.59;;;3.54;70.61
4705;BME280;2366;51.332;6.610;2023-04-03T01:35:10;102816.69;;;3.56;71.24
4705;BME280;2366;51.332;6.610;2023-04-03T01:37:36;102826.31;;;3.54;71.41
4705;BME280;2366;51.332;6.610;2023-04-03T01:40:02;102819.31;;;3.55;71.31
4705;BME280;2366;51.332;6.610;2023-04-03T01:42:28;102823.69;;;3.57;71.66
4705;BME280;2366;51.332;6.610;2023-04-03T01:44:54;102826.31;;;3.54;71.35
4705;BME280;2366;51.332;6.610;2023-04-03T01:47:19;102828.91;;;3.51;71.67
4705;BME280;2366;51.332;6.610;2023-04-03T01:49:45;102827.19;;;3.59;72.11
4705;BME280;2366;51.332;6.610;2023-04-03T01:52:10;102823.69;;;3.66;71.87
4705;BME280;2366;51.332;6.610;2023-04-03T01:54:36;102820.19;;;3.70;71.59
4705;BME280;2366;51.332;6.610;2023-04-03T01:57:01;102827.22;;;3.72;71.52
4705;BME280;2366;51.332;6.610;2023-04-03T01:59:27;102827.22;;;3.78;71.89
4705;BME280;2366;51.332;6.610;2023-04-03T02:01:53;102825.47;;;3.83;72.10
4705;BME280;2366;51.332;6.610;2023-04-03T02:04:18;102831.56;;;3.94;72.56
4705;BME280;2366;51.332;6.610;2023-04-03T02:06:44;102828.09;;;4.04;72.31
4705;BME280;2366;51.332;6.610;2023-04-03T02:09:09;102825.44;;;4.30;72.72
4705;BME280;2366;51.332;6.610;2023-04-03T02:11:34;102829.75;;;4.51;72.33
4705;BME280;2366;51.332;6.610;2023-04-03T02:14:00;102837.56;;;4.76;71.92
4705;BME280;2366;51.332;6.610;2023-04-03T02:16:25;102836.63;;;4.92;71.66
4705;BME280;2366;51.332;6.610;2023-04-03T02:18:50;102825.09;;;5.18;71.12
4705;BME280;2366;51.332;6.610;2023-04-03T02:21:16;102826.81;;;5.28;70.20
4705;BME280;2366;51.332;6.610;2023-04-03T02:23:41;102838.94;;;5.54;68.34
4705;BME280;2366;51.332;6.610;2023-04-03T02:26:09;102830.09;;;5.64;67.61
4705;BME280;2366;51.332;6.610;2023-04-03T02:28:35;102830.97;;;5.66;66.77
4705;BME280;2366;51.332;6.610;2023-04-03T02:31:00;102826.47;;;5.74;66.37
4705;BME280;2366;51.332;6.610;2023-04-03T02:33:26;102833.47;;;5.79;65.90
4705;BME280;2366;51.332;6.610;2023-04-03T02:35:55;102830.78;;;5.83;64.88
4705;BME280;2366;51.332;6.610;2023-04-03T02:38:21;102830.78;;;5.88;64.50
4705;BME280;2366;51.332;6.610;2023-04-03T02:40:46;102828.13;;;5.91;63.78
4705;BME280;2366;51.332;6.610;2023-04-03T02:43:12;102830.78;;;5.85;63.57
4705;BME280;2366;51.332;6.610;2023-04-03T02:45:37;102837.84;;;5.81;63.52
4705;BME280;2366;51.332;6.610;2023-04-03T02:48:03;102841.38;;;5.82;62.76
4705;BME280;2366;51.332;6.610;2023-04-03T02:50:28;102840.47;;;5.83;62.89
4705;BME280;2366;51.332;6.610;2023-04-03T02:52:53;102844.88;;;5.84;62.04
4705;BME280;2366;51.332;6.610;2023-04-03T02:55:19;102841.38;;;5.82;62.25
4705;BME280;2366;51.332;6.610;2023-04-03T02:57:44;102842.31;;;5.73;62.44
4705;BME280;2366;51.332;6.610;2023-04-03T03:00:10;102835.28;;;5.73;62.35
4705;BME280;2366;51.332;6.610;2023-04-03T03:02:35;102840.59;;;5.70;62.21
4705;BME280;2366;51.332;6.610;2023-04-03T03:05:01;102830.00;;;5.73;61.87
4705;BME280;2366;51.332;6.610;2023-04-03T03:07:26;102830.88;;;5.72;61.48
4705;BME280;2366;51.332;6.610;2023-04-03T03:09:51;102851.13;;;5.67;61.33
4705;BME280;2366;51.332;6.610;2023-04-03T03:12:17;102852.03;;;5.62;61.86
4705;BME280;2366;51.332;6.610;2023-04-03T03:14:47;102852.88;;;5.65;61.35
4705;BME280;2366;51.332;6.610;2023-04-03T03:17:12;102852.00;;;5.63;61.57
4705;BME280;2366;51.332;6.610;2023-04-03T03:19:38;102840.66;;;5.55;61.63
4705;BME280;2366;51.332;6.610;2023-04-03T03:22:03;102845.03;;;5.59;61.91
4705;BME280;2366;51.332;6.610;2023-04-03T03:24:29;102845.03;;;5.59;61.65
4705;BME280;2366;51.332;6.610;2023-04-03T03:26:55;102835.44;;;5.52;62.08
4705;BME280;2366;51.332;6.610;2023-04-03T03:29:20;102832.84;;;5.44;61.88
4705;BME280;2366;51.332;6.610;2023-04-03T03:31:45;102832.88;;;5.43;62.11
4705;BME280;2366;51.332;6.610;2023-04-03T03:34:11;102840.72;;;5.49;62.03
4705;BME280;2366;51.332;6.610;2023-04-03T03:36:37;102836.31;;;5.46;61.89
4705;BME280;2366;51.332;6.610;2023-04-03T03:39:02;102838.97;;;5.49;61.88
4705;BME280;2366;51.332;6.610;2023-04-03T03:41:28;102838.97;;;5.51;61.62
4705;BME280;2366;51.332;6.610;2023-04-03T03:43:53;102833.72;;;5.43;61.76
4705;BME280;2366;51.332;6.610;2023-04-03T03:46:18;102846.03;;;5.43;61.28
4705;BME280;2366;51.332;6.610;2023-04-03T03:48:44;102831.06;;;5.46;61.04
4705;BME280;2366;51.332;6.610;2023-04-03T03:51:09;102843.31;;;5.52;60.85
4705;BME280;2366;51.332;6.610;2023-04-03T03:53:35;102837.19;;;5.51;60.66
4705;BME280;2366;51.332;6.610;2023-04-03T03:56:00;102828.47;;;5.42;60.75
4705;BME280;2366;51.332;6.610;2023-04-03T03:58:26;102834.59;;;5.45;60.78
4705;BME280;2366;51.332;6.610;2023-04-03T04:00:51;102832.88;;;5.40;60.98
4705;BME280;2366;51.332;6.610;2023-04-03T04:03:16;102840.75;;;5.41;60.75
4705;BME280;2366;51.332;6.610;2023-04-03T04:05:43;102831.97;;;5.47;60.22
4705;BME280;2366;51.332;6.610;2023-04-03T04:08:08;102837.22;;;5.45;60.22
4705;BME280;2366;51.332;6.610;2023-04-03T04:10:34;102833.75;;;5.39;60.98
4705;BME280;2366;51.332;6.610;2023-04-03T04:13:00;102844.28;;;5.35;60.97
4705;BME280;2366;51.332;6.610;2023-04-03T04:15:26;102839.97;;;5.31;60.56
4705;BME280;2366;51.332;6.610;2023-04-03T04:17:52;102854.00;;;5.24;61.48
4705;BME280;2366;51.332;6.610;2023-04-03T04:20:18;102854.03;;;5.21;60.93
4705;BME280;2366;51.332;6.610;2023-04-03T04:22:43;102852.28;;;5.25;61.16
4705;BME280;2366;51.332;6.610;2023-04-03T04:25:09;102859.22;;;5.29;61.19
4705;BME280;2366;51.332;6.610;2023-04-03T04:27:35;102857.56;;;5.09;61.35
4705;BME280;2366;51.332;6.610;2023-04-03T04:30:00;102867.22;;;5.15;61.25
4705;BME280;2366;51.332;6.610;2023-04-03T04:32:26;102867.25;;;5.12;61.15
4705;BME280;2366;51.332;6.610;2023-04-03T04:34:51;102862.88;;;5.08;61.35
4705;BME280;2366;51.332;6.610;2023-04-03T04:37:17;102858.47;;;5.10;61.08
4705;BME280;2366;51.332;6.610;2023-04-03T04:39:42;102862.81;;;5.19;60.61
4705;BME280;2366;51.332;6.610;2023-04-03T04:42:07;102878.63;;;5.14;61.16
4705;BME280;2366;51.332;6.610;2023-04-03T04:44:40;102865.44;;;5.17;60.77
4705;BME280;2366;51.332;6.610;2023-04-03T04:47:06;102869.88;;;5.06;61.23
4705;BME280;2366;51.332;6.610;2023-04-03T04:49:31;102874.25;;;5.07;61.27
4705;BME280;2366;51.332;6.610;2023-04-03T04:51:57;102870.75;;;5.05;61.86
4705;BME280;2366;51.332;6.610;2023-04-03T04:54:22;102876.03;;;4.99;61.76
4705;BME280;2366;51.332;6.610;2023-04-03T04:56:48;102876.06;;;4.96;62.30
4705;BME280;2366;51.332;6.610;2023-04-03T04:59:13;102873.44;;;4.88;62.78
4705;BME280;2366;51.332;6.610;2023-04-03T05:01:38;102881.31;;;4.89;62.76
4705;BME280;2366;51.332;6.610;2023-04-03T05:04:04;102876.91;;;4.96;62.53
4705;BME280;2366;51.332;6.610;2023-04-03T05:06:30;102880.44;;;4.93;62.73
4705;BME280;2366;51.332;6.610;2023-04-03T05:08:57;102894.47;;;4.91;62.49
4705;BME280;2366;51.332;6.610;2023-04-03T05:11:22;102879.56;;;4.99;62.48
4705;BME280;2366;51.332;6.610;2023-04-03T05:13:48;102884.81;;;4.98;62.20
4705;BME280;2366;51.332;6.610;2023-04-03T05:16:13;102897.09;;;4.96;62.29
4705;BME280;2366;51.332;6.610;2023-04-03T05:18:39;102892.72;;;4.94;62.42
4705;BME280;2366;51.332;6.610;2023-04-03T05:21:04;102903.22;;;4.96;61.79
4705;BME280;2366;51.332;6.610;2023-04-03T05:23:30;102898.84;;;4.95;62.29
4705;BME280;2366;51.332;6.610;2023-04-03T05:25:55;102895.34;;;4.99;62.05
4705;BME280;2366;51.332;6.610;2023-04-03T05:28:20;102902.31;;;5.08;61.32
4705;BME280;2366;51.332;6.610;2023-04-03T05:30:55;102894.41;;;5.12;60.87
4705;BME280;2366;51.332;6.610;2023-04-03T05:33:22;102907.53;;;5.17;60.73
4705;BME280;2366;51.332;6.610;2023-04-03T05:35:47;102903.91;;;5.43;60.48
4705;BME280;2366;51.332;6.610;2023-04-03T05:38:12;102914.19;;;5.86;59.92
4705;BME280;2366;51.332;6.610;2023-04-03T05:40:38;102919.00;;;7.90;58.07
4705;BME280;2366;51.332;6.610;2023-04-03T05:43:03;102918.31;;;9.66;53.38
4705;BME280;2366;51.332;6.610;2023-04-03T05:45:28;102918.56;;;10.98;48.95
4705;BME280;2366;51.332;6.610;2023-04-03T05:47:54;102921.03;;;11.34;45.45
4705;BME280;2366;51.332;6.610;2023-04-03T05:50:20;102918.25;;;11.68;45.19
4705;BME280;2366;51.332;6.610;2023-04-03T05:52:48;102938.31;;;12.06;42.79
4705;BME280;2366;51.332;6.610;2023-04-03T05:55:14;102925.00;;;12.08;42.86
4705;BME280;2366;51.332;6.610;2023-04-03T05:57:40;102934.72;;;12.07;42.55
4705;BME280;2366;51.332;6.610;2023-04-03T06:00:07;102934.94;;;12.54;42.01
4705;BME280;2366;51.332;6.610;2023-04-03T06:02:35;102937.22;;;12.90;41.03
4705;BME280;2366;51.332;6.610;2023-04-03T06:05:01;102938.38;;;13.07;39.81
4705;BME280;2366;51.332;6.610;2023-04-03T06:07:28;102932.75;;;12.91;40.24
4705;BME280;2366;51.332;6.610;2023-04-03T06:09:55;102944.56;;;13.56;39.24
4705;BME280;2366;51.332;6.610;2023-04-03T06:12:22;102946.56;;;13.73;39.09
4705;BME280;2366;51.332;6.610;2023-04-03T06:14:48;102937.38;;;13.58;38.52
4705;BME280;2366;51.332;6.610;2023-04-03T06:17:15;102937.19;;;13.63;37.55
4705;BME280;2366;51.332;6.610;2023-04-03T06:19:41;102936.44;;;13.35;36.91
4705;BME280;2366;51.332;6.610;2023-04-03T06:22:06;102945.97;;;13.43;37.34
4705;BME280;2366;51.332;6.610;2023-04-03T06:24:32;102945.63;;;13.74;36.29
4705;BME280;2366;51.332;6.610;2023-04-03T06:26:57;102942.25;;;13.92;36.26
4705;BME280;2366;51.332;6.610;2023-04-03T06:29:23;102944.94;;;13.69;36.87
4705;BME280;2366;51.332;6.610;2023-04-03T06:31:50;102949.84;;;14.24;37.02
4705;BME280;2366;51.332;6.610;2023-04-03T06:34:15;102930.41;;;14.83;35.32
4705;BME280;2366;51.332;6.610;2023-04-03T06:36:42;102935.91;;;14.37;35.64
4705;BME280;2366;51.332;6.610;2023-04-03T06:39:10;102940.59;;;14.53;35.18
4705;BME280;2366;51.332;6.610;2023-04-03T06:41:38;102953.78;;;14.98;35.04
4705;BME280;2366;51.332;6.610;2023-04-03T06:44:04;102935.28;;;15.33;34.25
4705;BME280;2366;51.332;6.610;2023-04-03T06:46:29;102934.59;;;15.85;33.42
4705;BME280;2366;51.332;6.610;2023-04-03T06:48:55;102940.13;;;16.36;33.34
4705;BME280;2366;51.332;6.610;2023-04-03T06:51:28;102948.22;;;16.69;31.98
4705;BME280;2366;51.332;6.610;2023-04-03T06:53:57;102941.78;;;16.02;31.81
4705;BME280;2366;51.332;6.610;2023-04-03T06:56:23;102946.19;;;15.86;32.84
4705;BME280;2366;51.332;6.610;2023-04-03T06:58:49;102949.97;;;16.35;32.42
4705;BME280;2366;51.332;6.610;2023-04-03T07:01:17;102953.75;;;16.49;31.96
4705;BME280;2366;51.332;6.610;2023-04-03T07:03:44;102948.53;;;16.80;31.54
4705;BME280;2366;51.332;6.610;2023-04-03T07:06:12;102947.91;;;16.75;31.56
4705;BME280;2366;51.332;6.610;2023-04-03T07:08:38;102958.94;;;16.52;31.55
4705;BME280;2366;51.332;6.610;2023-04-03T07:11:04;102951.06;;;16.31;31.85
4705;BME280;2366;51.332;6.610;2023-04-03T07:13:30;102954.22;;;16.57;31.34
4705;BME280;2366;51.332;6.610;2023-04-03T07:15:56;102951.13;;;16.64;31.33
4705;BME280;2366;51.332;6.610;2023-04-03T07:18:22;102956.94;;;17.57;30.09
4705;BME280;2366;51.332;6.610;2023-04-03T07:20:47;102956.22;;;17.37;30.52
4705;BME280;2366;51.332;6.610;2023-04-03T07:23:13;102956.81;;;17.27;30.05
4705;BME280;2366;51.332;6.610;2023-04-03T07:25:46;102961.81;;;17.98;29.69
4705;BME280;2366;51.332;6.610;2023-04-03T07:28:13;102974.34;;;18.74;28.46
4705;BME280;2366;51.332;6.610;2023-04-03T07:30:47;102969.22;;;19.14;28.03
4705;BME280;2366;51.332;6.610;2023-04-03T07:33:14;102974.00;;;19.23;28.36
4705;BME280;2366;51.332;6.610;2023-04-03T07:35:40;102968.44;;;19.55;27.75
4705;BME280;2366;51.332;6.610;2023-04-03T07:38:06;102984.03;;;20.18;26.70
4705;BME280;2366;51.332;6.610;2023-04-03T07:40:32;102967.44;;;20.11;26.88
4705;BME280;2366;51.332;6.610;2023-04-03T07:42:59;102974.03;;;20.20;27.19
4705;BME280;2366;51.332;6.610;2023-04-03T07:45:25;102982.84;;;20.49;27.15
4705;BME280;2366;51.332;6.610;2023-04-03T07:47:50;102971.44;;;19.92;26.63
4705;BME280;2366;51.332;6.610;2023-04-03T07:50:17;102972.16;;;19.81;26.59
4705;BME280;2366;51.332;6.610;2023-04-03T07:52:42;102976.38;;;19.85;25.96
4705;BME280;2366;51.332;6.610;2023-04-03T07:55:08;102964.84;;;19.68;26.55
4705;BME280;2366;51.332;6.610;2023-04-03T07:57:34;102973.72;;;19.56;26.04
4705;BME280;2366;51.332;6.610;2023-04-03T08:00:00;102967.63;;;19.81;25.31
4705;BME280;2366;51.332;6.610;2023-04-03T08:02:26;102975.53;;;19.13;26.36
4705;BME280;2366;51.332;6.610;2023-04-03T08:04:52;102978.19;;;19.84;25.67
4705;BME280;2366;51.332;6.610;2023-04-03T08:07:17;102991.47;;;20.55;24.40
4705;BME280;2366;51.332;6.610;2023-04-03T08:09:42;102980.41;;;19.78;24.19
4705;BME280;2366;51.332;6.610;2023-04-03T08:12:09;102964.28;;;19.63;25.07
4705;BME280;2366;51.332;6.610;2023-04-03T08:14:37;102978.03;;;20.27;24.46
4705;BME280;2366;51.332;6.610;2023-04-03T08:17:03;102981.09;;;20.48;24.58
4705;BME280;2366;51.332;6.610;2023-04-03T08:19:30;102975.81;;;21.00;23.88
4705;BME280;2366;51.332;6.610;2023-04-03T08:21:55;102978.38;;;21.14;23.09
4705;BME280;2366;51.332;6.610;2023-04-03T08:24:22;102981.81;;;20.65;22.76
4705;BME280;2366;51.332;6.610;2023-04-03T08:26:48;102972.44;;;20.70;21.97
4705;BME280;2366;51.332;6.610;2023-04-03T08:29:13;102966.97;;;20.85;22.26
4705;BME280;2366;51.332;6.610;2023-04-03T08:31:38;102985.25;;;21.31;21.46
4705;BME280;2366;51.332;6.610;2023-04-03T08:34:04;102969.41;;;20.75;20.76
4705;BME280;2366;51.332;6.610;2023-04-03T08:36:30;102968.66;;;20.99;20.63
4705;BME280;2366;51.332;6.610;2023-04-03T08:38:56;102978.38;;;20.63;21.25
4705;BME280;2366;51.332;6.610;2023-04-03T08:41:39;102968.56;;;20.87;20.45
4705;BME280;2366;51.332;6.610;2023-04-03T08:47:27;102972.03;;;22.02;19.25
4705;BME280;2366;51.332;6.610;2023-04-03T08:49:57;102982.47;;;23.35;18.72
4705;BME280;2366;51.332;6.610;2023-04-03T08:52:57;102977.16;;;24.11;18.38
4705;BME280;2366;51.332;6.610;2023-04-03T08:55:33;102978.81;;;25.69;17.75
4705;BME280;2366;51.332;6.610;2023-04-03T08:58:04;102982.25;;;25.80;17.21
4705;BME280;2366;51.332;6.610;2023-04-03T09:00:54;102982.28;;;24.57;17.73
4705;BME280;2366;51.332;6.610;2023-04-03T09:03:21;102980.53;;;24.03;17.51
4705;BME280;2366;51.332;6.610;2023-04-03T09:06:05;102970.00;;;22.29;18.21
4705;BME280;2366;51.332;6.610;2023-04-03T09:08:49;102977.13;;;21.93;18.27
4705;BME280;2366;51.332;6.610;2023-04-03T09:11:25;102971.50;;;22.21;18.14
4705;BME280;2366;51.332;6.610;2023-04-03T09:14:01;102972.63;;;21.31;18.14
4705;BME280;2366;51.332;6.610;2023-04-03T09:16:56;102961.13;;;20.91;19.63
4705;BME280;2366;51.332;6.610;2023-04-03T09:21:57;102969.53;;;20.61;19.36
4705;BME280;2366;51.332;6.610;2023-04-03T09:24:25;102977.06;;;20.01;18.84
4705;BME280;2366;51.332;6.610;2023-04-03T09:27:01;102980.22;;;19.81;18.50
4705;BME280;2366;51.332;6.610;2023-04-03T09:29:28;102969.06;;;19.87;18.47
4705;BME280;2366;51.332;6.610;2023-04-03T09:31:59;102966.59;;;19.69;19.49
4705;BME280;2366;51.332;6.610;2023-04-03T09:34:27;102968.59;;;19.52;19.94
4705;BME280;2366;51.332;6.610;2023-04-03T09:36:55;102968.50;;;19.53;19.51
4705;BME280;2366;51.332;6.610;2023-04-03T09:39:27;102960.66;;;19.21;19.74
4705;BME280;2366;51.332;6.610;2023-04-03T09:42:02;102964.06;;;19.81;18.08
4705;BME280;2366;51.332;6.610;2023-04-03T09:44:37;102978.53;;;18.94;19.11
4705;BME280;2366;51.332;6.610;2023-04-03T09:47:19;102970.66;;;19.05;18.88
4705;BME280;2366;51.332;6.610;2023-04-03T09:49:48;102961.63;;;19.20;18.86
4705;BME280;2366;51.332;6.610;2023-04-03T09:52:24;102958.25;;;18.58;18.37
4705;BME280;2366;51.332;6.610;2023-04-03T09:54:50;102966.38;;;18.42;17.94
4705;BME280;2366;51.332;6.610;2023-04-03T09:57:15;102955.88;;;15.88;20.52
4705;BME280;2366;51.332;6.610;2023-04-03T10:04:39;102953.72;;;12.50;24.30
4705;BME280;2366;51.332;6.610;2023-04-03T10:07:31;102960.16;;;13.89;24.06
4705;BME280;2366;51.332;6.610;2023-04-03T10:10:15;102970.44;;;13.76;23.06
4705;BME280;2366;51.332;6.610;2023-04-03T10:12:43;102966.31;;;12.45;24.64
4705;BME280;2366;51.332;6.610;2023-04-03T10:15:13;102951.03;;;11.97;25.86
4705;BME280;2366;51.332;6.610;2023-04-03T10:18:02;102959.53;;;11.80;25.35
4705;BME280;2366;51.332;6.610;2023-04-03T10:20:40;102956.88;;;11.80;26.06
4705;BME280;2366;51.332;6.610;2023-04-03T10:23:18;102968.84;;;11.65;26.56
4705;BME280;2366;51.332;6.610;2023-04-03T10:46:55;102928.63;;;11.47;28.15
4705;BME280;2366;51.332;6.610;2023-04-03T10:49:33;102924.66;;;11.61;28.76
4705;BME280;2366;51.332;6.610;2023-04-03T10:52:19;102920.41;;;11.55;28.58
4705;BME280;2366;51.332;6.610;2023-04-03T10:57:23;102921.09;;;11.62;29.37
4705;BME280;2366;51.332;6.610;2023-04-03T10:59:53;102916.50;;;11.67;29.48
4705;BME280;2366;51.332;6.610;2023-04-03T11:02:31;102911.72;;;11.78;29.57
4705;BME280;2366;51.332;6.610;2023-04-03T11:05:03;102918.09;;;11.72;30.14
4705;BME280;2366;51.332;6.610;2023-04-03T11:07:34;102911.75;;;11.77;29.43
4705;BME280;2366;51.332;6.610;2023-04-03T11:10:13;102917.84;;;11.52;29.45
4705;BME280;2366;51.332;6.610;2023-04-03T11:12:51;102912.13;;;11.36;29.88
4705;BME280;2366;51.332;6.610;2023-04-03T11:15:20;102898.09;;;11.61;29.97
4705;BME280;2366;51.332;6.610;2023-04-03T11:18:19;102892.19;;;11.51;29.84
4705;BME280;2366;51.332;6.610;2023-04-03T11:21:03;102893.09;;;11.51;29.81
4705;BME280;2366;51.332;6.610;2023-04-03T11:23:40;102903.50;;;11.58;29.55
4705;BME280;2366;51.332;6.610;2023-04-03T11:26:12;102919.66;;;11.51;28.72
4705;BME280;2366;51.332;6.610;2023-04-03T11:28:39;102899.47;;;11.44;29.48
4705;BME280;2366;51.332;6.610;2023-04-03T11:34:08;102881.41;;;11.56;28.89
4705;BME280;2366;51.332;6.610;2023-04-03T11:36:44;102893.59;;;11.63;28.86
4705;BME280;2366;51.332;6.610;2023-04-03T11:39:52;102890.06;;;11.62;29.52
4705;BME280;2366;51.332;6.610;2023-04-03T11:42:29;102887.69;;;11.81;29.54
4705;BME280;2366;51.332;6.610;2023-04-03T11:47:49;102886.47;;;11.65;29.68
4705;BME280;2366;51.332;6.610;2023-04-03T12:00:51;102875.16;;;11.86;30.52
4705;BME280;2366;51.332;6.610;2023-04-03T12:11:14;102860.84;;;11.90;30.53
4705;BME280;2366;51.332;6.610;2023-04-03T12:16:27;102853.19;;;12.08;30.05
4705;BME280;2366;51.332;6.610;2023-04-03T12:24:26;102854.13;;;12.05;29.98
4705;BME280;2366;51.332;6.610;2023-04-03T12:29:50;102860.66;;;12.23;30.36
4705;BME280;2366;51.332;6.610;2023-04-03T12:32:41;102881.81;;;12.26;30.62
4705;BME280;2366;51.332;6.610;2023-04-03T12:35:17;102856.97;;;12.27;29.89
4705;BME280;2366;51.332;6.610;2023-04-03T12:37:57;102842.44;;;11.84;30.31
4705;BME280;2366;51.332;6.610;2023-04-03T12:48:47;102834.03;;;12.23;29.01
4705;BME280;2366;51.332;6.610;2023-04-03T12:51:37;102846.63;;;12.18;29.78
4705;BME280;2366;51.332;6.610;2023-04-03T12:54:16;102827.31;;;12.13;29.97
4705;BME280;2366;51.332;6.610;2023-04-03T12:56:43;102853.44;;;12.00;29.21
4705;BME280;2366;51.332;6.610;2023-04-03T12:59:24;102828.34;;;11.81;30.01
4705;BME280;2366;51.332;6.610;2023-04-03T13:01:54;102824.03;;;12.05;28.95
4705;BME280;2366;51.332;6.610;2023-04-03T13:04:21;102801.63;;;12.12;29.41
4705;BME280;2366;51.332;6.610;2023-04-03T13:06:47;102809.09;;;12.27;29.20
4705;BME280;2366;51.332;6.610;2023-04-03T13:09:27;102820.25;;;12.37;28.35
4705;BME280;2366;51.332;6.610;2023-04-03T13:12:01;102812.97;;;12.17;28.43
4705;BME280;2366;51.332;6.610;2023-04-03T13:14:29;102812.16;;;12.15;28.83
4705;BME280;2366;51.332;6.610;2023-04-03T13:19:24;102806.47;;;12.26;29.24
4705;BME280;2366;51.332;6.610;2023-04-03T13:22:36;102798.16;;;12.35;29.20
4705;BME280;2366;51.332;6.610;2023-04-03T13:24:43;102797.97;;;12.40;29.44
4705;BME280;2366;51.332;6.610;2023-04-03T13:27:12;102802.53;;;12.61;28.74
4705;BME280;2366;51.332;6.610;2023-04-03T13:29:38;102787.81;;;12.74;27.90
4705;BME280;2366;51.332;6.610;2023-04-03T13:32:06;102796.81;;;12.47;28.34
4705;BME280;2366;51.332;6.610;2023-04-03T13:34:38;102792.66;;;12.40;28.26
4705;BME280;2366;51.332;6.610;2023-04-03T13:37:06;102808.13;;;12.53;29.11
4705;BME280;2366;51.332;6.610;2023-04-03T13:39:39;102800.28;;;12.25;28.96
4705;BME280;2366;51.332;6.610;2023-04-03T13:42:17;102785.56;;;12.15;28.81
4705;BME280;2366;51.332;6.610;2023-04-03T13:44:46;102793.34;;;12.21;29.40
4705;BME280;2366;51.332;6.610;2023-04-03T13:47:19;102786.06;;;12.26;29.90
4705;BME280;2366;51.332;6.610;2023-04-03T13:49:59;102793.44;;;12.18;29.33
4705;BME280;2366;51.332;6.610;2023-04-03T13:52:32;102792.56;;;12.18;29.44
4705;BME280;2366;51.332;6.610;2023-04-03T13:55:25;102789.09;;;12.41;29.30
4705;BME280;2366;51.332;6.610;2023-04-03T13:57:59;102785.44;;;12.43;29.16
4705;BME280;2366;51.332;6.610;2023-04-03T14:03:00;102788.19;;;12.65;29.21
4705;BME280;2366;51.332;6.610;2023-04-03T14:05:26;102786.72;;;12.57;29.08
4705;BME280;2366;51.332;6.610;2023-04-03T14:07:53;102775.66;;;12.44;28.82
4705;BME280;2366;51.332;6.610;2023-04-03T14:10:19;102773.75;;;12.24;29.38
4705;BME280;2366;51.332;6.610;2023-04-03T14:12:45;102765.97;;;12.43;29.20
4705;BME280;2366;51.332;6.610;2023-04-03T14:15:31;102767.56;;;12.47;29.14
4705;BME280;2366;51.332;6.610;2023-04-03T14:17:57;102777.56;;;12.40;28.96
4705;BME280;2366;51.332;6.610;2023-04-03T14:20:25;102768.38;;;12.25;28.77
4705;BME280;2366;51.332;6.610;2023-04-03T14:22:52;102754.13;;;12.26;29.38
4705;BME280;2366;51.332;6.610;2023-04-03T14:25:19;102764.09;;;12.21;29.25
4705;BME280;2366;51.332;6.610;2023-04-03T14:27:47;102771.84;;;12.27;28.80
4705;BME280;2366;51.332;6.610;2023-04-03T14:30:26;102758.41;;;12.30;29.11
4705;BME280;2366;51.332;6.610;2023-04-03T14:32:52;102763.44;;;12.38;29.01
4705;BME280;2366;51.332;6.610;2023-04-03T14:35:18;102753.09;;;12.30;29.04
4705;BME280;2366;51.332;6.610;2023-04-03T14:37:44;102754.34;;;12.20;29.23
4705;BME280;2366;51.332;6.610;2023-04-03T14:40:13;102748.47;;;12.36;28.97
4705;BME280;2366;51.332;6.610;2023-04-03T14:42:38;102750.00;;;12.43;29.32
4705;BME280;2366;51.332;6.610;2023-04-03T14:45:08;102745.72;;;12.39;29.51
4705;BME280;2366;51.332;6.610;2023-04-03T14:47:39;102742.34;;;12.33;29.30
4705;BME280;2366;51.332;6.610;2023-04-03T14:50:07;102738.88;;;12.31;29.43
4705;BME280;2366;51.332;6.610;2023-04-03T14:52:35;102737.97;;;12.56;29.76
4705;BME280;2366;51.332;6.610;2023-04-03T14:55:02;102741.25;;;12.39;30.01